Terminal Aerodrome Forecast
Issued by NWS

Home | Current Version | Previous Version | Text Only | Print | Product List | Glossary On
Versions: 1 2 3 4 5 6 7 8 9 10 11 12 13 14
000
FTUS44 KJAN 171700
TAFGTR
TAF
KGTR 171729Z 1718/1818 15011KT P6SM FEW040 SCT250
     FM180100 11007KT P6SM OVC040
     FM180600 09010KT P6SM OVC025=

USA.gov is the U.S. government's official web portal to all federal, state and local government web resources and services.